ADDS METAR Data INFO
IDs: Format: Raw Decoded Include TAF

Data at: 0941 UTC 25 Jun 2018

KVDF 250935Z AUTO 00000KT 4SM BR CLR 22/22 A3007 RMK AO2
KVDF 250915Z AUTO 00000KT 5SM BR CLR 22/22 A3006 RMK AO2
KVDF 250855Z AUTO 00000KT 3SM BR CLR 22/22 A3006 RMK AO2
KVDF 250835Z AUTO 00000KT 5SM BR CLR 22/22 A3004 RMK AO2
KVDF 250815Z AUTO 00000KT 5SM BR CLR 22/22 A3004 RMK AO2
KVDF 250755Z AUTO 00000KT 7SM CLR 22/22 A3004 RMK AO2
KVDF 250735Z AUTO 00000KT 4SM BR CLR 22/22 A3004 RMK AO2
KVDF 250715Z AUTO 00000KT 4SM BR CLR 22/22 A3005 RMK AO2
KVDF 250655Z AUTO 00000KT 4SM BR CLR 22/22 A3005 RMK AO2
KVDF 250635Z AUTO 00000KT 1 3/4SM BR VV007 22/22 A3005 RMK AO2
KVDF 250615Z AUTO 00000KT 3SM BR CLR 22/22 A3005 RMK AO2
KVDF 250555Z AUTO 00000KT 5SM BR CLR 22/22 A3006 RMK AO2
KVDF 250535Z AUTO 00000KT 5SM BR CLR 22/22 A3006 RMK AO2
KVDF 250515Z AUTO 00000KT 7SM CLR 23/22 A3006 RMK AO2
KVDF 250455Z AUTO 00000KT 7SM CLR 23/22 A3007 RMK AO2
KVDF 250435Z AUTO 00000KT 7SM CLR 23/23 A3008 RMK AO2
KVDF 250415Z AUTO 00000KT 5SM BR CLR 23/23 A3008 RMK AO2
KVDF 250355Z AUTO 00000KT 4SM BR CLR 23/23 A3009 RMK AO2
KVDF 250335Z AUTO 00000KT 10SM SCT120 23/23 A3008 RMK AO2
KVDF 250315Z AUTO 00000KT 10SM -DZ SCT110 23/23 A3009 RMK AO2
KVDF 250255Z AUTO 00000KT 7SM -RA CLR 23/23 A3010 RMK AO2
KVDF 250235Z AUTO 00000KT 10SM -RA CLR 23/23 A3011 RMK AO2
KVDF 250215Z AUTO 00000KT 10SM -RA CLR 23/22 A3011 RMK AO2
KVDF 250155Z AUTO 00000KT 10SM -DZ CLR 23/23 A3010 RMK AO2
KVDF 250135Z AUTO 00000KT 10SM -RA SCT095 BKN120 23/23 A3008 RMK AO2
KVDF 250115Z AUTO 00000KT 10SM -RA BKN120 23/23 A3006 RMK AO2
KVDF 250055Z AUTO 13003KT 10SM RA BKN120 23/23 A3006 RMK AO2
KVDF 250035Z AUTO 14005KT 7SM RA BKN120 23/23 A3007 RMK AO2
KVDF 250015Z AUTO 10003KT 7SM RA OVC110 23/23 A3007 RMK AO2
KVDF 242355Z AUTO 12003KT 7SM RA SCT046 SCT060 OVC100 23/23 A3007 RMK AO2
KVDF 242335Z AUTO 00000KT 4SM +RA SCT004 BKN043 OVC075 23/23 A3008 RMK AO2
KVDF 242315Z AUTO 09005KT 1 1/2SM +RA BKN006 BKN017 OVC021 23/22 A3010 RMK AO2
KVDF 242255Z AUTO 09005KT 7SM RA SCT013 BKN035 OVC047 23/22 A3010 RMK AO2
KVDF 242235Z AUTO 08010KT 10SM -RA SCT044 SCT050 BKN110 24/23 A3008 RMK AO2
KVDF 242215Z AUTO 20004KT 10SM SCT120 24/23 A3004 RMK AO2
KVDF 242155Z AUTO 21006KT 10SM -RA SCT050 SCT055 BKN110 23/23 A3003 RMK AO2
KVDF 242135Z AUTO 18004G10KT 10SM -RA SCT023 BKN049 OVC120 24/23 A3004 RMK AO2
KVDF 242115Z AUTO 13005KT 4SM RA SCT028 BKN049 OVC075 24/22 A3004 RMK AO2
KVDF 242055Z AUTO 31010G15KT 5SM +RA SCT036 BKN047 OVC075 25/22 A3003 RMK AO2 P0003
KVDF 242035Z AUTO 00000KT 10SM SCT034 BKN050 OVC090 30/24 A3001 RMK AO2
KVDF 242015Z AUTO 30004KT 10SM SCT050 SCT060 BKN090 33/23 A3000 RMK AO2
KVDF 241955Z AUTO 30003KT 10SM SCT048 SCT060 SCT075 32/23 A3000 RMK AO2
KVDF 241935Z AUTO 35005KT 10SM SCT047 BKN060 BKN075 32/23 A3000 RMK AO2
KVDF 241915Z AUTO 35007KT 10SM SCT047 SCT060 BKN085 35/23 A3000 RMK AO2
KVDF 241855Z AUTO 33007KT 10SM SCT060 SCT075 SCT100 34/23 A3001 RMK AO2
KVDF 241835Z AUTO 36004KT 10SM SCT060 SCT070 SCT100 35/25 A3002 RMK AO2
KVDF 241815Z AUTO 32004KT 10SM SCT045 SCT060 BKN070 33/22 A3002 RMK AO2
KVDF 241755Z AUTO 00000KT 10SM SCT075 SCT090 33/23 A3003 RMK AO2
KVDF 241735Z AUTO 35006KT 10SM SCT044 SCT055 BKN080 34/24 A3004 RMK AO2
KVDF 241715Z AUTO 36003KT 10SM BKN044 BKN070 BKN085 32/24 A3005 RMK AO2
KVDF 241655Z AUTO 33003KT 10SM SCT040 SCT046 SCT050 33/24 A3005 RMK AO2
KVDF 241635Z AUTO 34004KT 10SM CLR 33/24 A3006 RMK AO2
KVDF 241615Z AUTO 00000KT 10SM SCT075 33/25 A3007 RMK AO2
KVDF 241555Z AUTO 33003KT 10SM SCT031 SCT047 BKN075 31/24 A3007 RMK AO2
KVDF 241535Z AUTO 32004KT 10SM SCT031 BKN047 BKN060 31/24 A3008 RMK AO2
KVDF 241515Z AUTO 00000KT 10SM SCT029 32/25 A3007 RMK AO2
KVDF 241455Z AUTO 36003KT 10SM SCT027 SCT033 32/25 A3007 RMK AO2
KVDF 241435Z AUTO 00000KT 10SM SCT025 31/25 A3007 RMK AO2
KVDF 241415Z AUTO 01003KT 10SM SCT023 30/25 A3007 RMK AO2
KVDF 241355Z AUTO 00000KT 10SM CLR 30/25 A3007 RMK AO2
KVDF 241335Z AUTO 00000KT 10SM CLR 28/25 A3007 RMK AO2
KVDF 241315Z AUTO 00000KT 10SM CLR 28/25 A3007 RMK AO2
KVDF 241255Z AUTO 00000KT 10SM CLR 27/24 A3007 RMK AO2
KVDF 241235Z AUTO 00000KT 10SM CLR 26/24 A3007 RMK AO2
KVDF 241215Z AUTO 00000KT 10SM CLR 26/24 A3006 RMK AO2
KVDF 241155Z AUTO 10SM CLR 25/25 A3006 RMK AO2
KVDF 241135Z AUTO 00000KT 10SM CLR 23/23 A3004 RMK AO2
KVDF 241115Z AUTO 00000KT 10SM CLR 23/23 A3004 RMK AO2
KVDF 241055Z AUTO 00000KT 7SM CLR 23/22 A3003 RMK AO2
KVDF 241035Z AUTO 00000KT 7SM CLR 22/22 A3003 RMK AO2
KVDF 241015Z AUTO 00000KT 5SM BR CLR 23/22 A3001 RMK AO2
KVDF 240955Z AUTO 00000KT 7SM CLR 23/22 A3001 RMK AO2
KVDF 240935Z AUTO 00000KT 7SM CLR 23/23 A3001 RMK AO2
KVDF 240915Z AUTO 00000KT 7SM CLR 23/23 A3001 RMK AO2
KVDF 240855Z AUTO 00000KT 7SM CLR 23/23 A3001 RMK AO2
KVDF 240835Z AUTO 00000KT 10SM CLR 23/23 A3001 RMK AO2
KVDF 240815Z AUTO 00000KT 10SM CLR 23/23 A3001 RMK AO2
KVDF 240755Z AUTO 00000KT 10SM CLR 23/23 A3001 RMK AO2
KVDF 240735Z AUTO 00000KT 10SM CLR 23/23 A3001 RMK AO2
KVDF 240715Z AUTO 00000KT 10SM CLR 23/23 A3002 RMK AO2
KVDF 240655Z AUTO 00000KT 10SM CLR 23/23 A3003 RMK AO2
KVDF 240635Z AUTO 00000KT 10SM CLR 23/23 A3003 RMK AO2
KVDF 240615Z AUTO 00000KT 10SM CLR 24/23 A3002 RMK AO2
KVDF 240555Z AUTO 00000KT 10SM CLR 25/23 A3003 RMK AO2
KVDF 240535Z AUTO 00000KT 10SM CLR 24/23 A3004 RMK AO2
KVDF 240515Z AUTO 00000KT 10SM SCT027 25/23 A3005 RMK AO2
KVDF 240455Z AUTO 00000KT 10SM SCT027 26/23 A3004 RMK AO2
KVDF 240435Z AUTO 00000KT 10SM OVC027 26/23 A3005 RMK AO2
KVDF 240415Z AUTO 00000KT 10SM OVC027 26/23 A3006 RMK AO2
KVDF 240355Z AUTO 00000KT 10SM BKN027 BKN034 26/23 A3006 RMK AO2
KVDF 240335Z AUTO 00000KT 10SM BKN029 BKN034 26/23 A3006 RMK AO2
KVDF 240315Z AUTO 00000KT 10SM BKN028 BKN033 27/22 A3005 RMK AO2
KVDF 240255Z AUTO 14003KT 10SM CLR 26/23 A3004 RMK AO2
KVDF 240235Z AUTO 00000KT 10SM CLR 26/23 A3002 RMK AO2
KVDF 240215Z AUTO 00000KT 10SM CLR 27/23 A3001 RMK AO2
KVDF 240155Z AUTO 19004KT 10SM CLR 27/23 A3001 RMK AO2
KVDF 240135Z AUTO 12003KT 10SM CLR 27/23 A3000 RMK AO2
KVDF 240115Z AUTO 00000KT 10SM CLR 27/23 A3000 RMK AO2
KVDF 240055Z AUTO 00000KT 10SM CLR 28/23 A3000 RMK AO2
KVDF 240035Z AUTO 12006KT 10SM CLR 29/24 A3001 RMK AO2
KVDF 240015Z AUTO 00000KT 10SM CLR 30/24 A3001 RMK AO2
KVDF 232355Z AUTO 00000KT 10SM CLR 30/23 A3001 RMK AO2
KVDF 232335Z AUTO 00000KT 10SM CLR 30/24 A3001 RMK AO2
KVDF 232315Z AUTO 32003KT 10SM SCT038 31/23 A3000 RMK AO2
KVDF 232255Z AUTO 32003KT 10SM SCT038 31/23 A3000 RMK AO2
KVDF 232235Z AUTO 34004KT 10SM CLR 31/23 A3000 RMK AO2
KVDF 232215Z AUTO 33005KT 10SM SCT040 SCT047 SCT055 32/23 A2999 RMK AO2
KVDF 232155Z AUTO 33004KT 10SM SCT042 SCT048 32/23 A3000 RMK AO2